Time;durP1;ratioP1;P1;durP2;ratioP2;P2;SDS_P1;SDS_P2;PMS_P1;PMS_P2;Temp;Humidity;BMP_temperature;BMP_pressure;BME280_temperature;BME280_humidity;BME280_pressure;Samples;Min_cycle;Max_cycle;Signal;HPM_P1;HPM_P2
2022/11/05 00:11:15;;;;;;;6.97;5.57;;;;;;;22.46;60.83;97073.75;5051012;28;20227;-31
2022/11/05 00:16:43;;;;;;;5.93;4.40;;;;;;;22.49;60.85;97084.94;5046266;28;20200;-31
2022/11/05 00:19:10;;;;;;;6.13;4.80;;;;;;;22.49;60.94;97089.16;5049213;28;20611;-32
2022/11/05 00:27:08;;;;;;;6.17;5.03;;;;;;;22.48;60.93;97093.44;5047992;28;20706;-31
2022/11/05 00:29:34;;;;;;;6.87;5.17;;;;;;;22.49;60.81;97099.41;5051383;28;20197;-31
2022/11/05 00:32:01;;;;;;;5.87;4.33;;;;;;;22.49;60.71;97104.53;5047433;28;20223;-31
2022/11/05 00:34:27;;;;;;;5.30;4.43;;;;;;;22.49;60.86;97104.53;5051073;28;20197;-31
2022/11/05 00:36:54;;;;;;;5.87;4.80;;;;;;;22.48;60.78;97111.38;5051823;28;20204;-31
2022/11/05 00:39:21;;;;;;;5.77;4.80;;;;;;;22.50;60.77;97113.97;5044817;28;20204;-31
2022/11/05 00:44:58;;;;;;;5.37;4.73;;;;;;;22.48;60.74;97118.19;5046390;28;20212;-31
2022/11/05 00:50:22;;;;;;;7.87;4.90;;;;;;;22.48;60.76;97121.63;5050109;28;20201;-31
2022/11/05 00:52:55;;;;;;;5.47;4.40;;;;;;;22.46;60.63;97122.41;5058791;28;20197;-31
2022/11/05 00:55:42;;;;;;;5.30;4.37;;;;;;;22.48;60.74;97136.13;5051418;28;20197;-31
2022/11/05 00:58:19;;;;;;;6.07;4.23;;;;;;;22.48;60.68;97136.13;5063392;28;20204;-31
2022/11/05 01:00:53;;;;;;;5.97;4.60;;;;;;;22.48;60.79;97143.78;5051966;28;20235;-31
2022/11/05 01:03:21;;;;;;;5.27;4.60;;;;;;;22.49;60.71;97155.75;5051166;28;20228;-31
2022/11/05 01:05:55;;;;;;;6.33;5.00;;;;;;;22.46;60.84;97145.44;5051744;28;20251;-31
2022/11/05 01:08:22;;;;;;;5.83;4.83;;;;;;;22.49;60.81;97145.50;5051314;28;20204;-31
2022/11/05 01:10:51;;;;;;;5.33;4.67;;;;;;;22.47;60.74;97140.38;5052673;28;20217;-31
2022/11/05 01:13:24;;;;;;;4.47;3.97;;;;;;;22.49;60.73;97145.50;5047488;28;20283;-31
2022/11/05 01:15:51;;;;;;;5.27;4.40;;;;;;;22.49;60.71;97158.31;5048886;28;20299;-31
2022/11/05 01:18:17;;;;;;;5.10;4.40;;;;;;;22.48;60.75;97152.34;5047571;28;20201;-31
2022/11/05 01:20:44;;;;;;;5.73;4.73;;;;;;;22.42;60.41;97146.22;5051469;28;20718;-31
2022/11/05 01:23:10;;;;;;;4.30;3.87;;;;;;;22.49;60.61;97159.19;5049215;28;20263;-31
2022/11/05 01:25:42;;;;;;;5.20;4.23;;;;;;;22.49;60.69;97158.31;5050452;28;20201;-31
2022/11/05 01:28:09;;;;;;;5.07;4.57;;;;;;;22.49;60.71;97158.31;5046883;28;20209;-31
2022/11/05 01:30:35;;;;;;;5.27;4.10;;;;;;;22.45;60.66;97153.97;5053036;28;20749;-31
2022/11/05 01:33:02;;;;;;;5.03;4.43;;;;;;;22.44;60.68;97158.22;5046912;28;20197;-31
2022/11/05 01:35:29;;;;;;;5.87;4.50;;;;;;;22.49;61.10;97171.13;5050234;28;20200;-31
2022/11/05 01:37:55;;;;;;;4.87;4.37;;;;;;;22.50;60.64;97175.44;5050172;28;20215;-31
2022/11/05 01:40:22;;;;;;;4.70;4.00;;;;;;;22.48;60.70;97169.41;5052978;28;20197;-31
2022/11/05 01:42:48;;;;;;;5.27;3.97;;;;;;;22.49;60.63;97177.13;5054766;28;20220;-31
2022/11/05 01:45:25;;;;;;;5.67;4.37;;;;;;;22.49;60.59;97178.81;5054234;28;20589;-31
2022/11/05 01:48:15;;;;;;;4.97;4.20;;;;;;;22.49;60.59;97181.38;5050328;28;20224;-31
2022/11/05 01:50:46;;;;;;;6.00;4.43;;;;;;;22.50;60.35;97178.00;5049464;28;20225;-31
2022/11/05 01:53:33;;;;;;;4.73;4.23;;;;;;;22.49;60.43;97179.69;5048309;28;20220;-31
2022/11/05 01:56:02;;;;;;;4.40;4.00;;;;;;;22.49;60.39;97174.56;5051743;28;20682;-31
2022/11/05 01:58:35;;;;;;;5.07;4.20;;;;;;;22.39;60.27;97153.84;5047587;28;20205;-31
2022/11/05 02:01:02;;;;;;;4.30;3.90;;;;;;;22.50;60.41;97172.88;5032811;28;20228;-31
2022/11/05 02:03:28;;;;;;;5.63;4.00;;;;;;;22.49;60.35;97173.69;5057794;28;20251;-31
2022/11/05 02:05:55;;;;;;;5.77;4.23;;;;;;;22.49;60.10;97171.13;5053333;28;20193;-31
2022/11/05 02:08:48;;;;;;;4.43;4.03;;;;;;;22.48;60.21;97180.53;5055185;28;20200;-31
2022/11/05 02:11:16;;;;;;;5.63;3.97;;;;;;;22.49;60.14;97186.47;5045065;28;20239;-31
2022/11/05 02:13:42;;;;;;;5.03;4.10;;;;;;;22.41;60.30;97177.81;5042312;28;20199;-31
2022/11/05 02:16:30;;;;;;;4.27;3.77;;;;;;;22.48;60.18;97188.19;5048266;28;20213;-31
2022/11/05 02:19:21;;;;;;;5.50;3.97;;;;;;;22.49;60.01;97186.47;5053473;28;20197;-31
2022/11/05 02:22:06;;;;;;;4.77;4.00;;;;;;;22.49;59.97;97192.47;5053189;28;20695;-31
2022/11/05 02:25:01;;;;;;;5.37;4.20;;;;;;;22.49;60.06;97186.47;5053071;28;20228;-31
2022/11/05 02:27:36;;;;;;;5.03;4.10;;;;;;;22.49;60.04;97181.38;5054602;28;20197;-31
2022/11/05 02:30:07;;;;;;;4.10;3.37;;;;;;;22.48;60.13;97180.53;5055560;28;20196;-31
2022/11/05 02:32:39;;;;;;;4.40;3.80;;;;;;;22.46;60.21;97176.19;5054215;28;20201;-31
2022/11/05 02:35:30;;;;;;;4.33;3.83;;;;;;;22.50;60.28;97185.66;5054636;28;20639;-31
2022/11/05 02:38:36;;;;;;;4.90;4.30;;;;;;;22.48;60.42;97185.66;5046856;28;20590;-31
2022/11/05 02:41:37;;;;;;;4.67;4.20;;;;;;;22.48;60.48;97184.78;5040334;28;20216;-31
2022/11/05 02:44:21;;;;;;;5.00;4.00;;;;;;;22.40;60.35;97174.38;5069332;28;20228;-31
2022/11/05 02:47:00;;;;;;;3.97;3.57;;;;;;;22.47;60.53;97178.78;5040869;28;20464;-31
2022/11/05 02:49:54;;;;;;;3.83;3.53;;;;;;;22.49;60.45;97186.47;5059395;28;20204;-31
2022/11/05 02:52:48;;;;;;;4.23;3.80;;;;;;;22.48;60.52;97177.09;5050861;28;20221;-31
2022/11/05 02:55:32;;;;;;;3.93;3.50;;;;;;;22.49;60.54;97183.91;5037343;28;20205;-31
2022/11/05 02:57:58;;;;;;;4.37;3.70;;;;;;;22.48;60.64;97174.53;5048649;28;20651;-31
2022/11/05 03:00:40;;;;;;;4.17;3.67;;;;;;;22.48;60.64;97175.41;5058892;28;20215;-31
2022/11/05 03:03:13;;;;;;;4.00;3.60;;;;;;;22.45;60.63;97175.34;5058864;28;20243;-31
2022/11/05 03:05:55;;;;;;;5.13;3.73;;;;;;;22.48;60.63;97174.53;5036224;28;20197;-31
2022/11/05 03:08:41;;;;;;;3.67;3.30;;;;;;;22.49;60.64;97178.81;5037004;28;20211;-31
2022/11/05 03:11:18;;;;;;;3.50;3.20;;;;;;;22.40;60.78;97163.25;5081184;28;20243;-31
2022/11/05 03:13:56;;;;;;;4.00;3.53;;;;;;;22.49;60.56;97184.78;5048584;28;20200;-31
2022/11/05 03:16:26;;;;;;;3.93;3.53;;;;;;;22.50;60.61;97186.53;5047173;28;20201;-31
2022/11/05 03:19:05;;;;;;;3.97;3.57;;;;;;;22.49;60.60;97183.91;5047989;28;20204;-31
2022/11/05 03:21:43;;;;;;;3.97;3.57;;;;;;;22.50;60.64;97185.66;5047483;28;20227;-31
2022/11/05 03:24:14;;;;;;;3.87;3.40;;;;;;;22.50;60.57;97184.00;5054626;28;20718;-31
2022/11/05 03:26:53;;;;;;;4.77;3.73;;;;;;;22.48;60.64;97183.09;5059264;28;20207;-31
2022/11/05 03:29:35;;;;;;;3.57;3.27;;;;;;;22.43;60.65;97181.25;5048451;28;20204;-31
2022/11/05 03:32:01;;;;;;;4.10;3.63;;;;;;;22.51;60.65;97197.66;5040157;28;20216;-31
2022/11/05 03:34:39;;;;;;;4.83;3.70;;;;;;;22.50;60.70;97199.34;5046444;28;20201;-31
2022/11/05 03:37:05;;;;;;;3.80;3.40;;;;;;;22.46;60.84;97206.91;5036148;28;20211;-31
2022/11/05 03:39:34;;;;;;;3.80;3.40;;;;;;;22.52;60.56;97219.88;5038190;28;20198;-31
2022/11/05 03:42:02;;;;;;;4.07;3.67;;;;;;;22.52;60.61;97223.31;5052702;28;20225;-31
2022/11/05 03:44:30;;;;;;;4.17;3.77;;;;;;;22.51;60.83;97221.59;5049858;28;20221;-31
2022/11/05 03:47:01;;;;;;;4.00;3.53;;;;;;;22.47;60.63;97218.91;5037973;28;20205;-31
2022/11/05 03:49:30;;;;;;;4.00;3.47;;;;;;;22.52;60.56;97238.69;5030969;28;20197;-31
2022/11/05 03:51:58;;;;;;;4.00;3.30;;;;;;;22.53;60.59;97239.56;5029448;28;20219;-31
2022/11/05 03:54:24;;;;;;;3.47;3.17;;;;;;;22.53;60.67;97247.22;5050776;28;20298;-31
2022/11/05 03:57:02;;;;;;;3.53;3.20;;;;;;;22.52;60.64;97248.91;5040441;28;20568;-31
2022/11/05 03:59:29;;;;;;;3.63;3.23;;;;;;;22.53;60.59;97252.34;5044901;28;20204;-31
2022/11/05 04:01:56;;;;;;;4.17;3.47;;;;;;;22.46;60.61;97248.75;5035998;28;20217;-32
2022/11/05 04:04:23;;;;;;;3.90;3.50;;;;;;;22.52;60.60;97259.16;5051714;28;20491;-31
2022/11/05 04:15:04;;;;;;;3.87;3.33;;;;;;;22.48;60.68;97262.47;5052970;28;20209;-31
2022/11/05 04:17:31;;;;;;;3.73;3.40;;;;;;;22.54;60.62;97259.19;5052322;28;20197;-31
2022/11/05 04:25:27;;;;;;;3.90;3.20;;;;;;;22.54;60.64;97272.88;5050425;28;20201;-31
2022/11/05 04:27:57;;;;;;;4.00;3.30;;;;;;;22.53;60.63;97275.41;5054111;28;20762;-31
2022/11/05 04:30:24;;;;;;;3.87;3.40;;;;;;;22.54;60.78;97282.25;5058036;28;20196;-31
2022/11/05 04:33:01;;;;;;;3.30;3.00;;;;;;;22.54;60.56;97283.13;5048679;28;20707;-31
2022/11/05 04:35:29;;;;;;;3.67;3.30;;;;;;;22.51;60.67;97279.63;5046429;28;20197;-31
2022/11/05 04:37:56;;;;;;;3.87;3.30;;;;;;;22.54;60.55;97283.13;5049895;28;20288;-31
2022/11/05 04:40:23;;;;;;;3.67;3.30;;;;;;;22.53;60.62;97281.38;5048616;28;20201;-31
2022/11/05 04:42:49;;;;;;;3.90;3.50;;;;;;;22.54;60.47;97283.13;5050538;28;20205;-31
2022/11/05 04:45:16;;;;;;;3.37;3.00;;;;;;;22.49;60.60;97274.44;5052577;28;20216;-31
2022/11/05 04:47:42;;;;;;;4.30;3.40;;;;;;;22.53;60.56;97276.25;5052067;28;20205;-31
2022/11/05 04:50:10;;;;;;;3.63;3.23;;;;;;;22.54;60.46;97283.13;5040409;28;20205;-31
2022/11/05 04:52:38;;;;;;;3.50;3.20;;;;;;;22.54;60.49;97279.69;5045987;28;20482;-31
2022/11/05 04:55:05;;;;;;;3.73;3.23;;;;;;;22.55;60.53;97283.97;5051666;28;20677;-31
2022/11/05 04:57:31;;;;;;;3.73;3.33;;;;;;;22.55;60.53;97277.16;5051791;28;20205;-31
2022/11/05 04:59:58;;;;;;;3.80;3.30;;;;;;;22.55;60.28;97286.53;5051533;28;20208;-31
2022/11/05 05:02:24;;;;;;;3.50;3.20;;;;;;;22.55;60.47;97289.09;5054990;28;20226;-31
2022/11/05 05:04:51;;;;;;;3.40;3.10;;;;;;;22.55;60.36;97289.09;5056548;28;20213;-31
2022/11/05 05:07:17;;;;;;;3.30;3.00;;;;;;;22.56;60.35;97288.28;5040838;28;20194;-31
2022/11/05 05:09:44;;;;;;;3.63;3.00;;;;;;;22.55;60.24;97291.66;5054672;28;20193;-31
2022/11/05 05:12:10;;;;;;;3.40;3.10;;;;;;;22.55;60.09;97287.41;5045093;28;20572;-31
2022/11/05 05:14:37;;;;;;;3.73;3.43;;;;;;;22.54;59.97;97288.25;5043368;28;20205;-31
2022/11/05 05:17:03;;;;;;;3.97;3.30;;;;;;;22.54;60.18;97290.81;5048199;28;20209;-31
2022/11/05 05:21:37;;;;;;;3.60;3.30;;;;;;;22.55;60.13;97292.53;5049935;28;20215;-31
2022/11/05 05:22:16;;;;;;;3.43;3.13;;;;;;;22.55;60.22;97299.34;5046514;28;20217;-31
2022/11/05 05:24:43;;;;;;;3.70;3.40;;;;;;;22.55;60.08;97301.88;5055424;28;20425;-31
2022/11/05 05:27:16;;;;;;;3.57;3.27;;;;;;;22.54;60.24;97305.28;5057674;28;20200;-31
2022/11/05 05:29:43;;;;;;;3.73;3.33;;;;;;;22.55;60.25;97313.00;5055307;28;20293;-31
2022/11/05 05:32:09;;;;;;;3.67;3.37;;;;;;;22.55;60.27;97317.25;5040930;28;20229;-31
2022/11/05 05:34:36;;;;;;;3.93;3.23;;;;;;;22.41;59.91;97300.72;5044510;28;20208;-31
2022/11/05 05:37:03;;;;;;;3.70;3.10;;;;;;;22.54;60.31;97325.78;5050852;28;20387;-31
2022/11/05 05:39:29;;;;;;;3.87;3.40;;;;;;;22.54;60.22;97326.66;5054887;28;20206;-31
2022/11/05 05:41:56;;;;;;;3.90;3.30;;;;;;;22.52;60.35;97336.00;5062318;28;20216;-31
2022/11/05 05:44:22;;;;;;;3.73;3.17;;;;;;;22.54;60.42;97326.66;5062337;28;20220;-31
2022/11/05 05:46:49;;;;;;;3.63;3.20;;;;;;;22.55;60.30;97335.19;5055451;28;20223;-31
2022/11/05 05:49:15;;;;;;;3.20;2.90;;;;;;;22.55;59.62;97330.94;5065338;28;20210;-31
2022/11/05 05:51:42;;;;;;;3.10;2.80;;;;;;;22.54;58.96;97329.22;5068392;28;20220;-31
2022/11/05 05:54:09;;;;;;;3.50;3.13;;;;;;;22.54;59.07;97334.34;5060042;28;20227;-31
2022/11/05 05:56:36;;;;;;;3.73;3.17;;;;;;;22.53;59.42;97330.03;5057637;28;20201;-31
2022/11/05 05:59:04;;;;;;;3.30;3.00;;;;;;;22.54;59.36;97336.03;5062671;28;20201;-31
2022/11/05 06:01:30;;;;;;;3.10;2.73;;;;;;;22.54;59.28;97344.59;5055680;28;20216;-31
2022/11/05 06:03:57;;;;;;;2.80;2.60;;;;;;;22.54;59.09;97339.47;5064267;28;20212;-31
2022/11/05 06:06:23;;;;;;;3.17;2.87;;;;;;;22.54;58.87;97349.72;5063670;28;20555;-31
2022/11/05 06:08:50;;;;;;;3.97;3.00;;;;;;;22.50;58.59;97347.88;5063434;28;20208;-31
2022/11/05 06:11:16;;;;;;;2.97;2.67;;;;;;;22.54;58.30;97353.97;5063368;28;20221;-31
2022/11/05 06:13:43;;;;;;;3.00;2.70;;;;;;;22.53;58.26;97352.25;5055337;28;20197;-31
2022/11/05 06:16:09;;;;;;;2.97;2.70;;;;;;;22.50;58.46;97354.69;5053372;28;20219;-31
2022/11/05 06:18:36;;;;;;;3.10;2.63;;;;;;;22.53;57.92;97360.75;5061274;28;20206;-31
2022/11/05 06:21:08;;;;;;;4.47;3.10;;;;;;;22.54;57.73;97362.50;5057882;28;20215;-31
2022/11/05 06:23:35;;;;;;;2.70;2.50;;;;;;;22.54;57.39;97375.31;5054784;28;20356;-31
2022/11/05 06:26:03;;;;;;;3.20;2.90;;;;;;;22.54;56.97;97375.31;5056887;28;20201;-31
2022/11/05 06:28:30;;;;;;;2.80;2.60;;;;;;;22.54;56.29;97382.13;5056242;28;20193;-31
2022/11/05 06:30:56;;;;;;;2.50;2.30;;;;;;;22.49;56.18;97376.00;5059872;28;20298;-31
2022/11/05 06:33:23;;;;;;;3.10;2.63;;;;;;;22.51;56.11;97382.06;5058757;28;20208;-31
2022/11/05 06:35:49;;;;;;;2.97;2.70;;;;;;;22.53;56.71;97376.13;5059235;28;20192;-31
2022/11/05 06:38:16;;;;;;;3.50;2.77;;;;;;;22.54;56.05;97387.25;5058073;28;20212;-31
2022/11/05 06:40:43;;;;;;;2.97;2.73;;;;;;;22.54;56.00;97389.81;5060513;28;20231;-31
2022/11/05 06:43:09;;;;;;;3.67;2.77;;;;;;;22.52;55.83;97386.34;5048772;28;20272;-31
2022/11/05 06:45:36;;;;;;;2.53;2.33;;;;;;;22.54;55.98;97393.25;5039048;28;20213;-31
2022/11/05 06:48:03;;;;;;;2.77;2.50;;;;;;;22.54;55.62;97394.94;5040459;28;20200;-31
2022/11/05 06:50:29;;;;;;;2.90;2.70;;;;;;;22.54;55.79;97400.06;5052744;28;20220;-31
2022/11/05 06:53:00;;;;;;;2.83;2.53;;;;;;;22.50;55.54;97396.53;5050958;28;20216;-31
2022/11/05 06:55:28;;;;;;;2.70;2.50;;;;;;;22.54;55.49;97407.75;5040591;28;20210;-31
2022/11/05 06:57:55;;;;;;;2.87;2.53;;;;;;;22.54;55.53;97416.31;5045455;28;20200;-31
2022/11/05 07:00:21;;;;;;;2.93;2.63;;;;;;;22.55;55.47;97417.16;5039504;28;20202;-31
2022/11/05 07:02:48;;;;;;;2.93;2.63;;;;;;;22.54;55.45;97418.00;5046857;28;20737;-31
2022/11/05 07:05:15;;;;;;;2.57;2.37;;;;;;;22.54;55.49;97423.97;5042659;28;20243;-31
2022/11/05 07:07:42;;;;;;;2.80;2.60;;;;;;;22.56;55.51;97431.72;5054316;28;20659;-31
2022/11/05 07:10:14;;;;;;;2.63;2.43;;;;;;;21.88;55.49;97321.63;5046034;28;20207;-31
2022/11/05 07:12:40;;;;;;;2.67;2.30;;;;;;;22.55;55.27;97437.63;5049271;28;20215;-31
2022/11/05 07:15:07;;;;;;;2.63;2.43;;;;;;;22.55;55.22;97448.75;5038818;28;20228;-31
2022/11/05 07:17:34;;;;;;;2.30;2.10;;;;;;;22.55;55.20;97443.63;5040486;28;20205;-31
2022/11/05 07:20:01;;;;;;;2.77;2.57;;;;;;;22.56;54.95;97450.47;5050828;28;20207;-31
2022/11/05 07:22:27;;;;;;;4.37;3.03;;;;;;;22.57;54.63;97469.28;5048967;28;20220;-31
2022/11/05 07:24:54;;;;;;;4.37;3.73;;;;;;;22.55;54.25;97464.13;5047999;28;20224;-31
2022/11/05 07:27:20;;;;;;;4.10;3.73;;;;;;;22.54;54.08;97461.53;5051851;28;20212;-31
2022/11/05 07:29:47;;;;;;;4.77;4.27;;;;;;;22.55;54.04;97469.25;5049725;28;20208;-31
2022/11/05 07:32:13;;;;;;;5.60;4.10;;;;;;;22.55;53.38;97474.38;5048338;28;20224;-31
2022/11/05 07:34:40;;;;;;;5.33;4.60;;;;;;;22.54;53.14;97472.66;5057263;28;20197;-31
2022/11/05 07:37:06;;;;;;;5.30;4.80;;;;;;;22.49;52.59;97463.94;5051983;28;20676;-31
2022/11/05 07:39:33;;;;;;;6.30;5.60;;;;;;;22.54;52.21;97482.00;5054572;28;20208;-31
2022/11/05 07:41:59;;;;;;;5.80;5.20;;;;;;;22.53;51.76;97480.28;5052322;28;20220;-31
2022/11/05 07:44:26;;;;;;;5.77;5.27;;;;;;;22.52;51.62;97483.66;5055656;28;20215;-31
2022/11/05 07:46:52;;;;;;;5.63;5.03;;;;;;;22.46;51.39;97474.09;5062806;28;20212;-31
2022/11/05 07:49:19;;;;;;;5.80;5.30;;;;;;;22.51;51.15;97487.94;5051136;28;20201;-31
2022/11/05 07:51:45;;;;;;;6.07;5.40;;;;;;;22.51;51.17;97492.19;5051694;28;20221;-31
2022/11/05 07:54:12;;;;;;;6.03;5.23;;;;;;;22.51;50.88;97492.19;5053625;28;20203;-31
2022/11/05 07:56:38;;;;;;;6.23;5.33;;;;;;;22.48;50.77;97490.41;5057885;28;20200;-31
2022/11/05 07:59:05;;;;;;;10.83;5.90;;;;;;;22.48;50.71;97492.94;5058696;28;20675;-31
2022/11/05 08:01:31;;;;;;;6.63;6.00;;;;;;;22.48;50.62;97495.50;5052647;28;20225;-31
2022/11/05 08:03:58;;;;;;;10.67;6.00;;;;;;;22.48;50.79;97492.94;5060374;28;20574;-31
2022/11/05 08:06:24;;;;;;;7.53;5.93;;;;;;;22.46;50.67;97491.16;5055577;28;20193;-32
2022/11/05 08:08:51;;;;;;;6.23;5.33;;;;;;;22.47;50.84;97500.59;5047607;28;20209;-31
2022/11/05 08:11:17;;;;;;;6.13;5.53;;;;;;;22.46;50.93;97507.41;5057357;28;20228;-31
2022/11/05 08:13:44;;;;;;;8.17;5.40;;;;;;;22.43;50.83;97502.22;5058882;28;20587;-31
2022/11/05 08:16:11;;;;;;;9.20;5.73;;;;;;;22.46;50.90;97502.28;5049427;28;20212;-31
2022/11/05 08:18:38;;;;;;;6.27;5.47;;;;;;;22.45;51.50;97509.94;5056026;28;20199;-31
2022/11/05 08:21:05;;;;;;;6.33;5.27;;;;;;;22.44;51.71;97514.16;5058165;28;20228;-31
2022/11/05 08:23:31;;;;;;;6.03;5.40;;;;;;;22.44;51.97;97511.59;5048119;28;20810;-31
2022/11/05 08:25:58;;;;;;;5.43;4.90;;;;;;;22.44;51.83;97511.59;5054084;28;20217;-31
2022/11/05 08:28:24;;;;;;;7.87;5.07;;;;;;;22.42;51.74;97507.28;5053654;28;20652;-31
2022/11/05 08:30:53;;;;;;;5.00;4.33;;;;;;;22.44;52.21;97509.03;5059503;28;20223;-31
2022/11/05 08:33:20;;;;;;;6.07;4.60;;;;;;;22.43;52.15;97515.00;5045202;28;20211;-31
2022/11/05 08:35:46;;;;;;;6.73;4.67;;;;;;;22.44;52.23;97514.16;5053690;28;20196;-31
2022/11/05 08:38:14;;;;;;;5.50;4.50;;;;;;;22.44;52.46;97505.66;5061281;28;20609;-31
2022/11/05 08:40:41;;;;;;;6.73;4.20;;;;;;;22.41;52.76;97506.41;5063555;28;20213;-31
2022/11/05 08:43:09;;;;;;;8.43;3.90;;;;;;;22.42;52.81;97504.72;5052727;28;20232;-31
2022/11/05 08:45:36;;;;;;;5.93;4.33;;;;;;;22.44;53.04;97508.19;5059908;28;20266;-31
2022/11/05 08:48:05;;;;;;;6.30;4.60;;;;;;;22.44;53.24;97511.59;5071657;28;20295;-31
2022/11/05 08:50:32;;;;;;;5.57;3.87;;;;;;;22.45;53.22;97505.69;5065054;28;20221;-31
2022/11/05 08:52:58;;;;;;;4.40;4.00;;;;;;;22.46;53.35;97514.22;5058973;28;20197;-31
2022/11/05 08:55:25;;;;;;;6.20;3.90;;;;;;;22.46;53.56;97509.09;5066172;28;20287;-31
2022/11/05 08:57:59;;;;;;;5.03;3.80;;;;;;;22.46;53.42;97514.22;5066383;28;20651;-31
2022/11/05 09:00:26;;;;;;;4.57;3.90;;;;;;;22.46;53.61;97516.78;5060230;28;20568;-31
2022/11/05 09:02:52;;;;;;;4.00;3.53;;;;;;;22.46;53.76;97517.66;5068562;28;20198;-31
2022/11/05 09:05:19;;;;;;;4.73;3.60;;;;;;;22.48;53.56;97535.63;5053700;28;20224;-31
2022/11/05 09:07:45;;;;;;;4.00;3.43;;;;;;;22.48;53.31;97527.94;5055887;28;20219;-31
2022/11/05 09:10:12;;;;;;;5.03;3.60;;;;;;;22.47;53.61;97537.28;5065559;28;20205;-31
2022/11/05 09:12:38;;;;;;;5.80;3.60;;;;;;;22.48;53.60;97536.50;5055956;28;20204;-31
2022/11/05 09:15:05;;;;;;;4.33;3.53;;;;;;;22.48;53.73;97538.19;5053275;28;20200;-31
2022/11/05 09:17:32;;;;;;;4.20;3.67;;;;;;;22.48;53.89;97526.25;5052566;28;20201;-31
2022/11/05 09:19:58;;;;;;;5.80;3.63;;;;;;;22.49;54.05;97533.09;5055966;28;20224;-31
2022/11/05 09:22:25;;;;;;;6.60;3.70;;;;;;;22.47;53.90;97534.75;5044151;28;20236;-31
2022/11/05 09:24:51;;;;;;;4.33;3.73;;;;;;;22.50;54.09;97536.53;5040901;28;20228;-31
2022/11/05 09:27:18;;;;;;;4.00;3.43;;;;;;;22.49;54.07;97529.66;5036671;28;20227;-31
2022/11/05 09:29:44;;;;;;;3.80;3.40;;;;;;;22.44;54.30;97526.13;5038483;28;20209;-31
2022/11/05 09:32:11;;;;;;;5.10;3.73;;;;;;;22.49;54.51;97534.78;5036965;28;20225;-31
2022/11/05 09:34:37;;;;;;;3.93;3.53;;;;;;;22.49;54.34;97539.91;5037112;28;20202;-31
2022/11/05 09:37:04;;;;;;;4.13;3.70;;;;;;;22.48;54.80;97545.84;5039907;28;20209;-31
2022/11/05 09:39:30;;;;;;;4.47;3.30;;;;;;;22.47;54.75;97533.88;5038731;28;20218;-31
2022/11/05 09:42:00;;;;;;;3.97;3.40;;;;;;;22.48;54.93;97548.41;5039169;28;20227;-31
2022/11/05 09:44:39;;;;;;;5.17;3.40;;;;;;;22.47;55.08;97539.00;5026154;28;20296;-31
2022/11/05 09:47:09;;;;;;;5.90;3.60;;;;;;;22.41;54.99;97539.69;5040521;28;20213;-31
2022/11/05 09:49:40;;;;;;;4.00;3.50;;;;;;;22.46;55.13;97542.38;5024164;28;20910;-31
2022/11/05 09:52:33;;;;;;;4.67;3.30;;;;;;;22.45;55.24;97544.09;5036160;28;20324;-31
2022/11/05 09:55:02;;;;;;;5.17;3.20;;;;;;;22.46;55.37;97548.38;5038420;28;20205;-31
2022/11/05 09:57:31;;;;;;;4.57;3.57;;;;;;;22.45;55.53;97546.66;5036555;28;20212;-31
2022/11/05 10:00:00;;;;;;;3.83;3.43;;;;;;;22.46;55.41;97550.06;5022065;28;20205;-31
2022/11/05 10:02:28;;;;;;;3.90;3.50;;;;;;;22.44;55.56;97560.28;5038427;28;20233;-31
2022/11/05 10:04:57;;;;;;;3.27;2.97;;;;;;;22.33;55.57;97541.22;5022337;28;20245;-31
2022/11/05 10:07:25;;;;;;;4.00;3.60;;;;;;;22.44;55.47;97556.88;5017989;28;20212;-32
2022/11/05 10:09:57;;;;;;;3.30;3.00;;;;;;;22.44;55.35;97561.97;5037689;28;20209;-31
2022/11/05 10:12:44;;;;;;;3.60;3.30;;;;;;;22.44;55.54;97567.09;5036034;28;20599;-31
2022/11/05 10:15:25;;;;;;;3.30;3.00;;;;;;;22.44;55.55;97567.09;5037282;28;20212;-31
2022/11/05 10:17:57;;;;;;;4.70;2.90;;;;;;;22.43;55.75;97573.03;5038732;28;20208;-31
2022/11/05 10:20:29;;;;;;;3.70;3.30;;;;;;;22.43;55.97;97570.47;5040985;28;20216;-31
2022/11/05 10:22:59;;;;;;;3.37;3.03;;;;;;;22.43;56.23;97568.78;5038533;28;20351;-31
2022/11/05 10:25:30;;;;;;;3.43;3.13;;;;;;;22.41;55.96;97567.03;5019330;28;20718;-31
2022/11/05 10:27:57;;;;;;;3.80;3.40;;;;;;;22.37;55.83;97568.63;5039001;28;20208;-31
2022/11/05 10:30:23;;;;;;;3.70;3.30;;;;;;;22.37;56.08;97560.06;5021588;28;20224;-31
2022/11/05 10:32:55;;;;;;;3.40;3.10;;;;;;;22.36;56.12;97571.16;5039020;28;20201;-31
2022/11/05 10:35:22;;;;;;;3.43;3.00;;;;;;;22.42;56.11;97581.56;5035177;28;20208;-31
2022/11/05 10:37:49;;;;;;;2.97;2.67;;;;;;;22.37;56.19;97573.75;5040716;28;20668;-31
2022/11/05 10:40:37;;;;;;;3.43;3.03;;;;;;;22.41;56.32;97578.13;5038516;28;20217;-31
2022/11/05 10:43:13;;;;;;;3.77;3.10;;;;;;;22.41;56.32;97583.22;5039856;28;21266;-31
2022/11/05 10:45:46;;;;;;;3.20;2.90;;;;;;;22.42;56.25;97590.13;5032879;28;20219;-31
2022/11/05 10:48:25;;;;;;;2.97;2.77;;;;;;;22.41;56.42;97595.19;5038610;28;20208;-31
2022/11/05 10:50:51;;;;;;;3.70;3.20;;;;;;;22.42;56.23;97590.13;5032222;28;20233;-31
2022/11/05 10:53:24;;;;;;;3.67;3.03;;;;;;;22.35;56.15;97577.94;5036354;28;20309;-31
2022/11/05 10:55:52;;;;;;;4.30;3.23;;;;;;;22.42;56.28;97591.78;5039648;28;20208;-31
2022/11/05 10:58:21;;;;;;;3.27;2.77;;;;;;;22.42;56.26;97589.22;5038601;28;20202;-31
2022/11/05 11:00:48;;;;;;;4.30;3.40;;;;;;;21.77;56.22;97479.94;5038712;28;20228;-31
2022/11/05 11:03:36;;;;;;;2.80;2.60;;;;;;;22.42;56.33;97599.47;5036530;28;20296;-31
2022/11/05 11:06:18;;;;;;;3.83;3.00;;;;;;;22.41;56.58;97587.50;5039098;28;20758;-31
2022/11/05 11:08:45;;;;;;;3.40;3.10;;;;;;;22.42;56.43;97589.22;5037151;28;20217;-31
2022/11/05 11:11:23;;;;;;;3.60;3.30;;;;;;;22.39;56.63;97592.59;5036980;28;20224;-31
2022/11/05 11:13:56;;;;;;;3.00;2.70;;;;;;;22.41;56.62;97590.91;5037245;28;20205;-31
2022/11/05 11:16:25;;;;;;;3.20;2.90;;;;;;;22.41;56.61;97592.63;5037811;28;20623;-31
2022/11/05 11:19:02;;;;;;;3.60;2.80;;;;;;;22.40;56.75;97591.75;5036814;28;20201;-31
2022/11/05 11:21:29;;;;;;;3.20;2.90;;;;;;;22.41;56.68;97593.47;5037546;28;20220;-31
2022/11/05 11:23:57;;;;;;;4.10;3.10;;;;;;;22.41;56.82;97587.50;5032932;28;20205;-31
2022/11/05 11:26:35;;;;;;;3.37;3.07;;;;;;;22.38;56.70;97587.44;5035585;28;20248;-31
2022/11/05 11:29:20;;;;;;;3.17;2.57;;;;;;;22.41;56.82;97588.34;5037555;28;20690;-31
2022/11/05 11:31:46;;;;;;;3.87;2.73;;;;;;;22.40;56.89;97591.75;5039485;28;20232;-31
2022/11/05 11:34:17;;;;;;;3.27;2.97;;;;;;;22.41;57.02;97601.16;5038667;28;20212;-31
2022/11/05 11:36:48;;;;;;;3.57;3.07;;;;;;;22.41;57.03;97596.03;5036865;28;20207;-31
2022/11/05 11:39:24;;;;;;;2.77;2.57;;;;;;;22.40;57.20;97596.88;5021228;28;20216;-31
2022/11/05 11:41:52;;;;;;;3.03;2.73;;;;;;;22.31;57.31;97586.38;5039154;28;20228;-31
2022/11/05 11:44:19;;;;;;;3.50;3.07;;;;;;;22.36;57.27;97586.50;5037072;28;20201;-31
2022/11/05 11:46:51;;;;;;;3.70;3.07;;;;;;;22.30;57.33;97581.22;5007630;28;20594;-31
2022/11/05 11:49:48;;;;;;;3.63;3.20;;;;;;;22.38;57.44;97595.97;5018523;28;20655;-31
2022/11/05 11:52:17;;;;;;;3.20;2.90;;;;;;;22.37;57.39;97598.47;5040725;28;20209;-31
2022/11/05 11:54:43;;;;;;;3.37;2.80;;;;;;;22.36;57.51;97599.31;5045790;28;20204;-31
2022/11/05 11:57:19;;;;;;;3.43;2.70;;;;;;;22.38;57.22;97605.34;5044516;28;20201;-31
2022/11/05 11:59:46;;;;;;;3.50;3.20;;;;;;;22.39;57.37;97601.94;5041009;28;20197;-31
2022/11/05 12:02:51;;;;;;;4.43;2.87;;;;;;;22.40;57.30;97616.47;5045157;28;20232;-31
2022/11/05 12:05:26;;;;;;;3.07;2.77;;;;;;;22.40;57.26;97607.13;5049479;28;20278;-31
2022/11/05 12:07:54;;;;;;;3.27;2.93;;;;;;;22.40;57.22;97617.38;5049184;28;20205;-31
2022/11/05 12:10:27;;;;;;;2.83;2.63;;;;;;;22.40;57.13;97619.91;5028257;28;20201;-31
2022/11/05 12:12:57;;;;;;;3.07;2.77;;;;;;;22.41;57.22;97610.56;5049771;28;20204;-31
2022/11/05 12:15:31;;;;;;;3.47;3.10;;;;;;;22.42;57.20;97617.41;5038913;28;20224;-31
2022/11/05 12:18:02;;;;;;;3.43;2.93;;;;;;;22.42;57.16;97614.84;5047232;28;20219;-31
2022/11/05 12:20:38;;;;;;;3.37;2.87;;;;;;;22.41;57.13;97619.09;5044670;28;20212;-31
2022/11/05 12:23:28;;;;;;;2.97;2.67;;;;;;;22.42;57.05;97615.72;5054436;28;20200;-31
2022/11/05 12:26:10;;;;;;;4.30;2.80;;;;;;;22.41;57.12;97619.09;5048834;28;20220;-31
2022/11/05 12:28:40;;;;;;;4.03;2.67;;;;;;;22.42;56.96;97615.72;5045575;28;20205;-31